Terminal Aerodrome Forecast
Issued by NWS

Home | Current Version | Previous Version | Graphics & Text | Print | Product List | Glossary On
Versions: 1 2 3 4 5 6 7 8 9 10 11 12 13
000
FTUS42 KMHX 121140
TAFPGV
TAF
KPGV 121140Z 1212/1312 21009KT P6SM SKC
     FM121700 27012G19KT P6SM BKN045
     FM130100 31014G22KT P6SM SCT045
     FM130600 30007KT P6SM SKC
      AMD LTD TO CLD VIS AND WIND=

USA.gov is the U.S. government's official web portal to all federal, state and local government web resources and services.